createdAt,value
2023-03-21T00:01:53.911Z,5.70
2023-03-21T00:04:28.336Z,5.50
2023-03-21T00:06:58.129Z,5.50
2023-03-21T00:09:24.971Z,5.50
2023-03-21T00:11:51.722Z,5.60
2023-03-21T00:14:19.964Z,5.60
2023-03-21T00:16:51.089Z,5.70
2023-03-21T00:19:20.782Z,5.70
2023-03-21T00:22:05.420Z,5.70
2023-03-21T00:24:32.990Z,5.80
2023-03-21T00:27:12.532Z,5.70
2023-03-21T00:29:49.261Z,5.80
2023-03-21T00:32:16.948Z,5.80
2023-03-21T00:34:58.825Z,5.80
2023-03-21T00:37:31.331Z,5.80
2023-03-21T00:39:58.129Z,5.80
2023-03-21T00:42:25.017Z,5.80
2023-03-21T00:44:51.866Z,5.80
2023-03-21T00:47:18.716Z,5.80
2023-03-21T00:49:45.868Z,5.70
2023-03-21T00:52:18.692Z,5.80
2023-03-21T00:54:51.606Z,5.80
2023-03-21T00:57:20.218Z,5.80
2023-03-21T00:59:48.812Z,5.80
2023-03-21T01:02:22.726Z,5.80
2023-03-21T01:04:50.448Z,5.80
2023-03-21T01:07:17.161Z,5.80
2023-03-21T01:09:43.882Z,5.80
2023-03-21T01:12:10.997Z,5.90
2023-03-21T01:14:38.478Z,5.90
2023-03-21T01:17:06.126Z,5.80
2023-03-21T01:19:48.741Z,5.70
2023-03-21T01:22:17.260Z,5.80
2023-03-21T01:24:53.854Z,5.70
2023-03-21T01:27:23.745Z,5.70
2023-03-21T01:29:50.647Z,5.60
2023-03-21T01:32:17.498Z,5.70
2023-03-21T01:34:44.193Z,5.70
2023-03-21T01:37:10.916Z,5.70
2023-03-21T01:39:37.703Z,5.70
2023-03-21T01:42:04.537Z,5.80
2023-03-21T01:44:31.635Z,5.80
2023-03-21T01:47:10.617Z,5.80
2023-03-21T01:49:46.139Z,5.80
2023-03-21T01:52:35.372Z,5.80
2023-03-21T01:55:06.902Z,5.80
2023-03-21T01:58:04.897Z,5.80
2023-03-21T02:00:33.752Z,5.80
2023-03-21T02:03:13.809Z,5.90
2023-03-21T02:06:02.468Z,5.90
2023-03-21T02:08:39.134Z,5.90
2023-03-21T02:11:08.082Z,5.90
2023-03-21T02:13:36.269Z,5.90
2023-03-21T02:16:24.534Z,5.90
2023-03-21T02:19:35.647Z,5.90
2023-03-21T02:22:12.039Z,5.90
2023-03-21T02:25:13.353Z,6.00
2023-03-21T02:28:33.782Z,5.90
2023-03-21T02:31:22.601Z,6.00
2023-03-21T02:34:27.314Z,6.00
2023-03-21T02:37:16.060Z,6.00
2023-03-21T02:39:59.537Z,6.00
2023-03-21T02:42:36.191Z,6.00
2023-03-21T02:45:16.096Z,6.00
2023-03-21T02:47:52.707Z,6.00
2023-03-21T02:50:37.400Z,5.90
2023-03-21T02:53:07.257Z,5.90
2023-03-21T02:55:35.888Z,5.90
2023-03-21T02:58:12.907Z,5.90
2023-03-21T03:00:42.819Z,5.80
2023-03-21T03:03:12.727Z,5.60
2023-03-21T03:05:55.827Z,5.60
2023-03-21T03:09:02.146Z,5.60
2023-03-21T03:11:34.320Z,5.60
2023-03-21T03:14:40.042Z,5.50
2023-03-21T03:17:21.666Z,5.50
2023-03-21T03:20:04.268Z,5.60
2023-03-21T03:23:05.666Z,5.60
2023-03-21T03:25:43.755Z,5.80
2023-03-21T03:28:13.067Z,5.80
2023-03-21T03:30:48.878Z,5.90
2023-03-21T03:33:23.639Z,5.90
2023-03-21T03:36:04.445Z,5.90
2023-03-21T03:38:35.734Z,5.90
2023-03-21T03:41:10.310Z,5.90
2023-03-21T03:43:50.823Z,5.90
2023-03-21T03:46:25.149Z,6.00
2023-03-21T03:49:02.551Z,5.90
2023-03-21T03:51:36.236Z,5.90
2023-03-21T03:54:28.245Z,5.90
2023-03-21T03:56:55.538Z,6.00
2023-03-21T03:59:22.392Z,5.90
2023-03-21T04:01:49.279Z,5.90
2023-03-21T04:04:17.049Z,6.00
2023-03-21T04:06:51.552Z,6.00
2023-03-21T04:09:22.177Z,6.00
2023-03-21T04:11:51.794Z,6.00
2023-03-21T04:14:18.817Z,5.90
2023-03-21T04:16:45.612Z,5.90
2023-03-21T04:19:12.504Z,5.80
2023-03-21T04:21:39.550Z,5.80
2023-03-21T04:24:07.418Z,5.80
2023-03-21T04:26:35.874Z,5.80
2023-03-21T04:29:03.365Z,5.80
2023-03-21T04:31:31.335Z,5.80
2023-03-21T04:33:59.545Z,5.80
2023-03-21T04:36:39.067Z,5.80
2023-03-21T04:39:12.210Z,5.70
2023-03-21T04:41:44.075Z,5.60
2023-03-21T04:44:12.516Z,5.50
2023-03-21T04:46:40.039Z,5.40
2023-03-21T04:49:07.712Z,5.50
2023-03-21T04:51:35.754Z,5.50
2023-03-21T04:54:02.887Z,5.40
2023-03-21T04:56:34.012Z,5.40
2023-03-21T04:59:05.680Z,5.40
2023-03-21T05:01:32.809Z,5.50
2023-03-21T05:04:04.436Z,5.40
2023-03-21T05:06:32.027Z,5.40
2023-03-21T05:09:00.367Z,5.50
2023-03-21T05:11:32.366Z,5.50
2023-03-21T05:13:59.482Z,5.50
2023-03-21T05:16:30.512Z,5.50
2023-03-21T05:18:59.204Z,5.60
2023-03-21T05:21:29.451Z,5.50
2023-03-21T05:23:58.327Z,5.50
2023-03-21T05:26:25.158Z,5.40
2023-03-21T05:28:51.871Z,5.40
2023-03-21T05:31:19.173Z,5.30
2023-03-21T05:33:47.203Z,5.20
2023-03-21T05:36:15.624Z,5.20
2023-03-21T05:38:48.472Z,5.20
2023-03-21T05:41:18.167Z,5.20
2023-03-21T05:43:45.944Z,5.30
2023-03-21T05:46:13.443Z,5.40
2023-03-21T05:48:40.196Z,5.40
2023-03-21T05:51:06.999Z,5.50
2023-03-21T05:53:33.803Z,5.60
2023-03-21T05:56:00.663Z,5.60
2023-03-21T05:58:27.459Z,5.70
2023-03-21T06:00:54.563Z,5.80
2023-03-21T06:03:21.324Z,5.90
2023-03-21T06:05:48.233Z,5.90
2023-03-21T06:08:15.325Z,5.90
2023-03-21T06:10:42.143Z,6.00
2023-03-21T06:13:08.939Z,6.20
2023-03-21T06:15:36.173Z,6.20
2023-03-21T06:18:03.129Z,6.30
2023-03-21T06:20:29.921Z,6.40
2023-03-21T06:22:56.728Z,6.60
2023-03-21T06:25:23.481Z,6.60
2023-03-21T06:27:50.237Z,6.80
2023-03-21T06:30:18.110Z,6.80
2023-03-21T06:32:44.838Z,6.90
2023-03-21T06:35:11.630Z,7.00
2023-03-21T06:37:38.406Z,7.10
2023-03-21T06:40:06.085Z,7.20
2023-03-21T06:42:32.884Z,7.30
2023-03-21T06:44:59.637Z,7.40
2023-03-21T06:47:26.357Z,7.60
2023-03-21T06:49:53.119Z,7.70
2023-03-21T06:52:20.062Z,7.90
2023-03-21T06:54:46.788Z,7.90
2023-03-21T06:57:13.845Z,8.10
2023-03-21T06:59:41.903Z,8.10
2023-03-21T07:02:11.174Z,8.30
2023-03-21T07:04:37.986Z,8.40
2023-03-21T07:07:04.824Z,8.60
2023-03-21T07:09:31.599Z,8.70
2023-03-21T07:11:58.427Z,8.80
2023-03-21T07:14:25.598Z,9.10
2023-03-21T07:16:52.426Z,9.30
2023-03-21T07:19:19.196Z,9.30
2023-03-21T07:21:46.464Z,9.40
2023-03-21T07:24:13.169Z,9.40
2023-03-21T07:26:39.909Z,9.50
2023-03-21T07:29:06.685Z,9.60
2023-03-21T07:31:33.533Z,9.70
2023-03-21T07:34:00.527Z,9.80
2023-03-21T07:36:28.080Z,9.80
2023-03-21T07:38:54.844Z,9.90
2023-03-21T07:41:21.634Z,10.00
2023-03-21T07:43:48.427Z,10.10
2023-03-21T07:46:15.746Z,10.10
2023-03-21T07:48:42.496Z,10.10
2023-03-21T07:51:09.596Z,10.10
2023-03-21T07:53:36.334Z,10.00
2023-03-21T07:56:04.009Z,10.00
2023-03-21T07:58:30.720Z,10.00
2023-03-21T08:00:58.722Z,10.10
2023-03-21T08:03:29.114Z,10.10
2023-03-21T08:05:55.979Z,10.20
2023-03-21T08:08:22.834Z,10.30
2023-03-21T08:10:49.849Z,10.40
2023-03-21T08:13:16.625Z,10.50
2023-03-21T08:15:43.664Z,10.50
2023-03-21T08:18:11.395Z,10.70
2023-03-21T08:20:38.728Z,10.60
2023-03-21T08:23:05.440Z,10.70
2023-03-21T08:25:33.072Z,10.80
2023-03-21T08:27:59.886Z,10.80
2023-03-21T08:30:28.382Z,10.80
2023-03-21T08:33:01.889Z,10.80
2023-03-21T08:35:30.406Z,11.00
2023-03-21T08:37:57.628Z,11.10
2023-03-21T08:40:24.622Z,11.20
2023-03-21T08:42:51.352Z,11.20
2023-03-21T08:45:18.534Z,11.40
2023-03-21T08:47:46.550Z,11.60
2023-03-21T08:50:16.808Z,11.60
2023-03-21T08:52:43.931Z,11.60
2023-03-21T08:55:11.813Z,11.60
2023-03-21T08:57:38.889Z,11.60
2023-03-21T09:00:14.306Z,11.60
2023-03-21T09:02:45.517Z,11.80
2023-03-21T09:05:12.692Z,11.90
2023-03-21T09:07:41.578Z,12.10
2023-03-21T09:10:20.600Z,12.30
2023-03-21T09:12:53.276Z,12.30
2023-03-21T09:15:24.094Z,12.40
2023-03-21T09:17:53.234Z,12.40
2023-03-21T09:20:25.915Z,12.40
2023-03-21T09:22:53.336Z,12.40
2023-03-21T09:25:21.354Z,12.40
2023-03-21T09:27:48.333Z,12.50
2023-03-21T09:30:21.165Z,12.70
2023-03-21T09:32:50.537Z,12.80
2023-03-21T09:35:19.026Z,12.80
2023-03-21T09:37:48.256Z,12.80
2023-03-21T09:40:19.525Z,12.90
2023-03-21T09:42:52.341Z,12.80
2023-03-21T09:45:42.784Z,12.80
2023-03-21T09:48:25.983Z,12.60
2023-03-21T09:50:53.740Z,13.00
2023-03-21T09:53:27.047Z,13.00
2023-03-21T09:55:56.165Z,13.00
2023-03-21T09:58:36.539Z,13.10
2023-03-21T10:01:22.260Z,13.10
2023-03-21T10:03:54.388Z,13.30
2023-03-21T10:06:30.616Z,13.40
2023-03-21T10:09:06.482Z,13.40
2023-03-21T10:11:50.397Z,13.60
2023-03-21T10:14:34.659Z,13.90
2023-03-21T10:17:13.733Z,13.90
2023-03-21T10:19:41.916Z,13.80
2023-03-21T10:22:09.300Z,13.90
2023-03-21T10:24:37.125Z,13.90
2023-03-21T10:27:04.638Z,14.00
2023-03-21T10:29:44.808Z,14.10
2023-03-21T10:32:17.298Z,14.30
2023-03-21T10:34:50.918Z,14.30
2023-03-21T10:37:18.140Z,14.50
2023-03-21T10:39:49.118Z,14.60
2023-03-21T10:42:28.426Z,14.80
2023-03-21T10:44:57.750Z,15.00
2023-03-21T10:47:27.586Z,15.20
2023-03-21T10:50:10.983Z,15.30
2023-03-21T10:52:47.344Z,15.40
2023-03-21T10:55:25.471Z,15.40
2023-03-21T10:58:00.036Z,15.50
2023-03-21T11:00:33.764Z,15.50
2023-03-21T11:03:01.466Z,15.30
2023-03-21T11:05:38.506Z,15.40
2023-03-21T11:08:18.430Z,15.30
2023-03-21T11:10:59.775Z,15.40
2023-03-21T11:13:37.774Z,15.30
2023-03-21T11:16:10.954Z,15.40
2023-03-21T11:18:44.005Z,15.40
2023-03-21T11:21:14.523Z,15.60
2023-03-21T11:23:48.133Z,15.80
2023-03-21T11:26:30.870Z,15.80
2023-03-21T11:28:58.220Z,15.70
2023-03-21T11:31:39.260Z,15.90
2023-03-21T11:34:08.205Z,16.20
2023-03-21T11:36:40.778Z,16.00
2023-03-21T11:39:32.701Z,15.80
2023-03-21T11:42:01.287Z,15.50
2023-03-21T11:44:34.062Z,15.60
2023-03-21T11:47:01.859Z,15.60
2023-03-21T11:49:29.441Z,15.60
2023-03-21T11:52:08.195Z,16.00
2023-03-21T11:55:07.759Z,16.20
2023-03-21T11:58:13.848Z,16.10
2023-03-21T12:01:09.108Z,16.20
2023-03-21T12:03:54.993Z,16.20
2023-03-21T12:06:33.995Z,16.30
2023-03-21T12:09:22.898Z,16.50
2023-03-21T12:12:15.392Z,16.70
2023-03-21T12:15:14.568Z,16.80
2023-03-21T12:18:03.220Z,16.80
2023-03-21T12:20:41.894Z,16.90
2023-03-21T12:23:32.587Z,17.10
2023-03-21T12:26:24.473Z,16.80
2023-03-21T12:28:57.372Z,17.10
2023-03-21T12:31:37.578Z,17.20
2023-03-21T12:34:42.761Z,17.10
2023-03-21T12:37:30.763Z,17.50
2023-03-21T12:40:12.003Z,18.10
2023-03-21T12:42:58.227Z,18.80
2023-03-21T12:45:37.432Z,19.90
2023-03-21T12:48:33.624Z,20.30
2023-03-21T12:51:04.616Z,20.70
2023-03-21T12:54:00.998Z,21.40
2023-03-21T12:56:46.626Z,22.20
2023-03-21T12:59:36.644Z,22.10
2023-03-21T13:02:19.288Z,22.00
2023-03-21T13:05:10.709Z,21.60
2023-03-21T13:07:43.183Z,22.10
2023-03-21T13:10:16.331Z,22.50
2023-03-21T13:12:50.341Z,23.20
2023-03-21T13:15:48.134Z,23.40
2023-03-21T13:18:39.266Z,22.30
2023-03-21T13:21:16.698Z,22.20
2023-03-21T13:24:00.377Z,22.80
2023-03-21T13:26:39.189Z,23.60
2023-03-21T13:29:26.717Z,24.50
2023-03-21T13:31:57.488Z,23.10
2023-03-21T13:34:25.313Z,22.30
2023-03-21T13:36:52.951Z,21.60
2023-03-21T13:39:31.037Z,21.90
2023-03-21T13:42:05.919Z,22.00
2023-03-21T13:44:50.408Z,22.40
2023-03-21T13:47:31.662Z,22.50
2023-03-21T13:50:17.496Z,23.30
2023-03-21T13:53:04.465Z,23.30
2023-03-21T13:55:47.152Z,23.10
2023-03-21T13:58:25.022Z,23.40
2023-03-21T14:01:29.108Z,23.80
2023-03-21T14:04:13.648Z,24.60
2023-03-21T14:07:04.851Z,24.70
2023-03-21T14:09:33.600Z,23.90
2023-03-21T14:12:07.602Z,23.50
2023-03-21T14:14:41.328Z,23.60
2023-03-21T14:17:33.530Z,23.30
2023-03-21T14:20:16.267Z,23.40
2023-03-21T14:22:46.195Z,23.60
2023-03-21T14:25:15.300Z,23.80
2023-03-21T14:27:49.460Z,25.40
2023-03-21T14:30:38.259Z,23.90
2023-03-21T14:33:17.267Z,22.10
2023-03-21T14:35:46.835Z,20.90
2023-03-21T14:38:22.699Z,20.90
2023-03-21T14:40:52.979Z,20.10
2023-03-21T14:43:21.667Z,19.30
2023-03-21T14:45:54.387Z,19.10
2023-03-21T14:48:28.265Z,19.40
2023-03-21T14:50:57.223Z,20.10
2023-03-21T14:53:30.388Z,20.10
2023-03-21T14:56:18.848Z,19.60
2023-03-21T14:58:47.189Z,19.90
2023-03-21T15:01:20.570Z,20.70
2023-03-21T15:03:50.789Z,20.40
2023-03-21T15:06:17.779Z,20.50
2023-03-21T15:08:59.878Z,20.80
2023-03-21T15:11:33.057Z,21.10
2023-03-21T15:14:02.629Z,21.00
2023-03-21T15:16:31.250Z,21.00
2023-03-21T15:18:59.245Z,20.70
2023-03-21T15:21:31.877Z,20.60
2023-03-21T15:24:17.756Z,19.80
2023-03-21T15:26:46.715Z,18.90
2023-03-21T15:29:16.077Z,18.30
2023-03-21T15:31:43.430Z,18.10
2023-03-21T15:34:26.168Z,18.00
2023-03-21T15:37:05.482Z,18.10
2023-03-21T15:39:35.917Z,18.20
2023-03-21T15:42:37.369Z,18.10
2023-03-21T15:45:26.911Z,17.80
2023-03-21T15:48:03.148Z,17.80
2023-03-21T15:50:39.870Z,17.20
2023-03-21T15:53:14.790Z,16.70
2023-03-21T15:55:51.950Z,16.70
2023-03-21T15:58:24.441Z,16.50
2023-03-21T16:00:56.285Z,16.60
2023-03-21T16:03:48.132Z,16.40
2023-03-21T16:06:14.932Z,16.30
2023-03-21T16:08:48.358Z,16.20
2023-03-21T16:11:24.786Z,16.20
2023-03-21T16:13:53.300Z,16.20
2023-03-21T16:16:23.121Z,16.10
2023-03-21T16:18:50.496Z,16.00
2023-03-21T16:21:20.577Z,15.90
2023-03-21T16:23:48.386Z,15.80
2023-03-21T16:26:27.998Z,15.80
2023-03-21T16:28:55.445Z,15.70
2023-03-21T16:31:26.055Z,15.60
2023-03-21T16:33:53.080Z,15.50
2023-03-21T16:36:23.779Z,15.30
2023-03-21T16:38:52.717Z,15.30
2023-03-21T16:41:20.790Z,15.20
2023-03-21T16:43:47.879Z,15.20
2023-03-21T16:46:19.324Z,15.20
2023-03-21T16:48:49.563Z,15.10
2023-03-21T16:51:19.101Z,15.00
2023-03-21T16:53:46.241Z,14.90
2023-03-21T16:56:28.795Z,14.80
2023-03-21T16:58:56.886Z,14.70
2023-03-21T17:01:29.934Z,14.60
2023-03-21T17:03:58.199Z,14.50
2023-03-21T17:06:28.047Z,14.30
2023-03-21T17:08:58.038Z,14.30
2023-03-21T17:11:31.272Z,14.10
2023-03-21T17:13:58.036Z,14.00
2023-03-21T17:16:27.110Z,14.00
2023-03-21T17:18:55.151Z,13.90
2023-03-21T17:21:25.345Z,13.80
2023-03-21T17:23:53.176Z,13.70
2023-03-21T17:26:23.112Z,13.50
2023-03-21T17:28:50.585Z,13.40
2023-03-21T17:31:22.830Z,13.30
2023-03-21T17:33:49.914Z,13.00
2023-03-21T17:36:17.908Z,13.10
2023-03-21T17:38:48.584Z,13.10
2023-03-21T17:41:17.773Z,13.00
2023-03-21T17:43:45.128Z,12.90
2023-03-21T17:46:14.366Z,12.80
2023-03-21T17:48:41.993Z,12.80
2023-03-21T17:51:14.601Z,12.70
2023-03-21T17:53:50.598Z,12.70
2023-03-21T17:56:21.697Z,12.60
2023-03-21T17:58:48.866Z,12.60
2023-03-21T18:01:15.753Z,12.70
2023-03-21T18:03:42.602Z,12.70
2023-03-21T18:06:16.262Z,12.60
2023-03-21T18:08:43.674Z,12.60
2023-03-21T18:11:12.744Z,12.50
2023-03-21T18:13:41.254Z,12.40
2023-03-21T18:16:10.442Z,12.40
2023-03-21T18:18:38.025Z,12.40
2023-03-21T18:21:05.858Z,12.30
2023-03-21T18:23:33.091Z,12.20
2023-03-21T18:25:59.913Z,12.00
2023-03-21T18:28:26.743Z,11.90
2023-03-21T18:31:08.481Z,11.90
2023-03-21T18:33:40.102Z,11.90
2023-03-21T18:36:08.310Z,11.80
2023-03-21T18:38:36.475Z,11.80
2023-03-21T18:41:03.839Z,11.80
2023-03-21T18:46:17.919Z,11.50
2023-03-21T18:48:44.904Z,11.40
2023-03-21T18:51:12.270Z,11.50
2023-03-21T18:53:39.160Z,11.60
2023-03-21T18:56:10.118Z,11.50
2023-03-21T18:58:38.515Z,11.50
2023-03-21T19:01:06.310Z,11.50
2023-03-21T19:03:37.075Z,11.50
2023-03-21T19:06:05.687Z,11.40
2023-03-21T19:08:34.558Z,11.40
2023-03-21T19:11:05.918Z,11.50
2023-03-21T19:13:34.168Z,11.40
2023-03-21T19:16:02.749Z,11.40
2023-03-21T19:21:19.155Z,11.10
2023-03-21T19:26:33.213Z,10.80
2023-03-21T19:29:00.373Z,10.80
2023-03-21T19:31:27.800Z,10.60
2023-03-21T19:33:55.151Z,10.60
2023-03-21T19:36:23.380Z,10.50
2023-03-21T19:38:51.109Z,10.50
2023-03-21T19:41:20.180Z,10.50
2023-03-21T19:43:54.787Z,10.60
2023-03-21T19:46:25.481Z,10.60
2023-03-21T19:48:56.540Z,10.60
2023-03-21T19:51:29.766Z,10.70
2023-03-21T19:54:03.430Z,10.70
2023-03-21T19:56:31.609Z,10.80
2023-03-21T19:58:59.733Z,10.80
2023-03-21T20:01:27.747Z,10.80
2023-03-21T20:03:55.053Z,10.90
2023-03-21T20:06:24.993Z,10.80
2023-03-21T20:11:40.693Z,10.80
2023-03-21T20:14:07.523Z,10.80
2023-03-21T20:16:36.748Z,10.80
2023-03-21T20:19:06.163Z,10.90
2023-03-21T20:21:44.396Z,10.90
2023-03-21T20:24:16.568Z,10.90
2023-03-21T20:26:45.242Z,10.80
2023-03-21T20:30:07.060Z,10.70
2023-03-21T20:32:00.401Z,10.60
2023-03-21T20:34:28.430Z,10.60
2023-03-21T20:36:56.413Z,10.60
2023-03-21T20:39:23.630Z,10.60
2023-03-21T20:41:51.196Z,10.60
2023-03-21T20:47:06.253Z,10.60
2023-03-21T20:49:33.686Z,10.50
2023-03-21T20:54:50.460Z,10.30
2023-03-21T20:57:18.807Z,10.10
2023-03-21T20:59:47.138Z,10.10
2023-03-21T21:02:14.884Z,9.90
2023-03-21T21:05:03.601Z,9.90
2023-03-21T21:07:30.754Z,9.90
2023-03-21T21:09:58.567Z,9.90
2023-03-21T21:12:27.704Z,9.90
2023-03-21T21:14:56.311Z,10.00
2023-03-21T21:17:46.571Z,10.00
2023-03-21T21:20:16.987Z,9.90
2023-03-21T21:22:58.956Z,9.90
2023-03-21T21:25:27.604Z,9.90
2023-03-21T21:27:54.415Z,9.80
2023-03-21T21:30:21.475Z,9.70
2023-03-21T21:32:49.318Z,9.50
2023-03-21T21:35:17.846Z,9.40
2023-03-21T21:37:44.973Z,9.40
2023-03-21T21:40:15.590Z,9.30
2023-03-21T21:42:44.065Z,9.30
2023-03-21T21:45:13.087Z,9.30
2023-03-21T21:47:40.476Z,9.40
2023-03-21T21:50:08.274Z,9.50
2023-03-21T21:52:35.476Z,9.50
2023-03-21T21:55:04.033Z,9.50
2023-03-21T21:57:34.123Z,9.50
2023-03-21T22:00:06.067Z,9.50
2023-03-21T22:02:33.000Z,9.50
2023-03-21T22:04:59.772Z,9.40
2023-03-21T22:07:27.404Z,9.40
2023-03-21T22:09:54.917Z,9.40
2023-03-21T22:12:21.787Z,9.40
2023-03-21T22:14:48.627Z,9.40
2023-03-21T22:17:15.372Z,9.30
2023-03-21T22:19:43.508Z,9.30
2023-03-21T22:22:11.452Z,9.30
2023-03-21T22:24:38.261Z,9.40
2023-03-21T22:27:05.294Z,9.40
2023-03-21T22:29:32.070Z,9.50
2023-03-21T22:31:58.852Z,9.50
2023-03-21T22:34:27.570Z,9.50
2023-03-21T22:36:56.925Z,9.30
2023-03-21T22:39:26.258Z,9.40
2023-03-21T22:41:54.285Z,9.20
2023-03-21T22:44:21.233Z,9.10
2023-03-21T22:46:48.009Z,9.10
2023-03-21T22:49:15.697Z,9.30
2023-03-21T22:51:43.714Z,9.30
2023-03-21T22:54:11.350Z,9.40
2023-03-21T22:56:38.140Z,9.40
2023-03-21T22:59:04.893Z,9.50
2023-03-21T23:01:31.778Z,9.60
2023-03-21T23:03:58.703Z,9.50
2023-03-21T23:06:25.503Z,9.50
2023-03-21T23:08:52.256Z,9.40
2023-03-21T23:11:19.008Z,9.30
2023-03-21T23:13:47.560Z,9.30
2023-03-21T23:16:16.765Z,9.20
2023-03-21T23:18:43.603Z,9.20
2023-03-21T23:21:13.338Z,9.10
2023-03-21T23:23:41.707Z,9.00
2023-03-21T23:26:09.513Z,8.90
2023-03-21T23:28:36.331Z,9.00
2023-03-21T23:31:18.266Z,8.90
2023-03-21T23:33:46.453Z,8.90
2023-03-21T23:36:14.437Z,8.80
2023-03-21T23:38:41.617Z,8.80
2023-03-21T23:41:09.731Z,8.70
2023-03-21T23:43:37.381Z,8.70
2023-03-21T23:46:05.333Z,8.80
2023-03-21T23:48:32.532Z,8.80
2023-03-21T23:50:59.463Z,8.90
2023-03-21T23:53:26.581Z,8.90
2023-03-21T23:55:53.722Z,8.80
2023-03-21T23:58:23.730Z,8.90
